createdAt,value
2018-06-06T00:00:22.797Z,84.15
2018-06-06T00:01:28.312Z,83.76
2018-06-06T00:02:33.808Z,84.15
2018-06-06T00:03:39.320Z,84.05
2018-06-06T00:04:44.839Z,83.92
2018-06-06T00:05:50.365Z,83.58
2018-06-06T00:06:55.879Z,83.44
2018-06-06T00:08:01.384Z,83.63
2018-06-06T00:09:06.896Z,84.01
2018-06-06T00:10:12.415Z,84.58
2018-06-06T00:11:17.927Z,84.20
2018-06-06T00:12:23.451Z,84.91
2018-06-06T00:13:28.961Z,84.30
2018-06-06T00:14:34.476Z,83.92
2018-06-06T00:15:40.010Z,84.39
2018-06-06T00:16:45.508Z,85.16
2018-06-06T00:17:51.028Z,84.68
2018-06-06T00:18:56.543Z,84.68
2018-06-06T00:20:02.051Z,84.97
2018-06-06T00:21:07.567Z,84.88
2018-06-06T00:22:13.083Z,84.78
2018-06-06T00:23:18.641Z,84.68
2018-06-06T00:24:24.111Z,84.39
2018-06-06T00:25:29.626Z,85.16
2018-06-06T00:26:35.169Z,84.30
2018-06-06T00:27:40.654Z,83.53
2018-06-06T00:28:46.190Z,84.01
2018-06-06T00:29:51.686Z,83.72
2018-06-06T00:30:57.203Z,84.11
2018-06-06T00:32:02.725Z,84.11
2018-06-06T00:33:08.233Z,83.72
2018-06-06T00:34:13.751Z,84.20
2018-06-06T00:35:19.264Z,84.39
2018-06-06T00:36:24.785Z,84.78
2018-06-06T00:37:30.299Z,85.06
2018-06-06T00:38:35.808Z,84.78
2018-06-06T00:39:41.324Z,85.06
2018-06-06T00:40:46.842Z,85.25
2018-06-06T00:41:52.354Z,84.78
2018-06-06T00:42:57.882Z,85.25
2018-06-06T00:44:03.387Z,84.97
2018-06-06T00:45:08.897Z,85.16
2018-06-06T00:46:14.424Z,85.06
2018-06-06T00:47:19.931Z,85.06
2018-06-06T00:48:25.442Z,85.54
2018-06-06T00:49:30.956Z,85.54
2018-06-06T00:50:36.474Z,84.88
2018-06-06T00:51:41.986Z,85.06
2018-06-06T00:52:47.507Z,85.25
2018-06-06T00:53:53.025Z,84.88
2018-06-06T00:54:58.534Z,85.64
2018-06-06T00:56:04.049Z,85.54
2018-06-06T00:57:09.563Z,84.97
2018-06-06T00:58:15.094Z,84.88
2018-06-06T00:59:20.613Z,84.58
2018-06-06T01:00:26.185Z,84.68
2018-06-06T01:01:31.633Z,84.97
2018-06-06T01:02:37.140Z,85.16
2018-06-06T01:03:42.677Z,85.06
2018-06-06T01:04:48.175Z,85.35
2018-06-06T01:05:53.686Z,85.16
2018-06-06T01:06:59.197Z,84.97
2018-06-06T01:08:04.715Z,85.25
2018-06-06T01:09:10.241Z,85.06
2018-06-06T01:10:15.746Z,84.68
2018-06-06T01:11:21.255Z,84.88
2018-06-06T01:12:26.775Z,84.78
2018-06-06T01:13:32.285Z,84.78
2018-06-06T01:14:37.804Z,84.97
2018-06-06T01:15:43.325Z,84.68
2018-06-06T01:16:48.837Z,85.06
2018-06-06T01:17:54.349Z,85.45
2018-06-06T01:18:59.870Z,85.02
2018-06-06T01:20:05.385Z,85.02
2018-06-06T01:21:10.890Z,85.31
2018-06-06T01:22:16.405Z,85.69
2018-06-06T01:23:21.927Z,85.31
2018-06-06T01:24:27.438Z,84.92
2018-06-06T01:25:32.955Z,85.21
2018-06-06T01:26:38.478Z,85.50
2018-06-06T01:27:43.993Z,85.31
2018-06-06T01:28:49.495Z,85.41
2018-06-06T01:29:55.011Z,85.21
2018-06-06T01:31:00.532Z,85.02
2018-06-06T01:32:06.047Z,85.12
2018-06-06T01:33:11.567Z,85.79
2018-06-06T01:34:17.082Z,85.50
2018-06-06T01:35:22.587Z,85.12
2018-06-06T01:36:28.099Z,85.21
2018-06-06T01:37:33.620Z,85.12
2018-06-06T01:38:39.210Z,85.02
2018-06-06T01:39:44.647Z,85.31
2018-06-06T01:40:50.171Z,84.83
2018-06-06T01:41:55.675Z,85.02
2018-06-06T01:43:01.193Z,85.21
2018-06-06T01:44:06.706Z,86.27
2018-06-06T01:45:12.218Z,86.17
2018-06-06T01:46:17.734Z,86.22
2018-06-06T01:47:23.245Z,86.41
2018-06-06T01:48:28.782Z,86.90
2018-06-06T01:49:34.279Z,86.41
2018-06-06T01:50:39.790Z,87.47
2018-06-06T01:51:45.306Z,87.47
2018-06-06T01:52:50.823Z,87.76
2018-06-06T01:53:56.342Z,86.41
2018-06-06T01:55:01.855Z,86.32
2018-06-06T01:56:07.369Z,86.22
2018-06-06T01:57:12.884Z,86.13
2018-06-06T01:58:18.394Z,86.13
2018-06-06T01:59:23.921Z,86.32
2018-06-06T02:00:29.438Z,86.04
2018-06-06T02:01:34.940Z,86.22
2018-06-06T02:02:40.468Z,86.22
2018-06-06T02:03:45.967Z,86.04
2018-06-06T02:04:51.482Z,86.22
2018-06-06T02:05:56.993Z,85.65
2018-06-06T02:07:02.513Z,86.04
2018-06-06T02:08:08.026Z,86.32
2018-06-06T02:09:13.546Z,86.80
2018-06-06T02:10:19.054Z,86.80
2018-06-06T02:11:24.573Z,86.04
2018-06-06T02:12:30.087Z,86.22
2018-06-06T02:13:35.620Z,86.41
2018-06-06T02:14:41.118Z,86.22
2018-06-06T02:15:46.709Z,85.94
2018-06-06T02:16:52.145Z,85.84
2018-06-06T02:17:57.655Z,86.51
2018-06-06T02:19:03.232Z,86.22
2018-06-06T02:20:08.685Z,86.51
2018-06-06T02:21:14.208Z,86.51
2018-06-06T02:22:19.716Z,86.90
2018-06-06T02:23:25.231Z,87.18
2018-06-06T02:24:30.749Z,86.80
2018-06-06T02:25:36.261Z,86.61
2018-06-06T02:26:41.774Z,86.41
2018-06-06T02:27:47.293Z,85.99
2018-06-06T02:28:52.804Z,86.13
2018-06-06T02:29:58.314Z,86.04
2018-06-06T02:31:03.835Z,86.80
2018-06-06T02:32:09.347Z,86.41
2018-06-06T02:33:14.862Z,86.32
2018-06-06T02:34:20.378Z,86.90
2018-06-06T02:35:25.896Z,86.61
2018-06-06T02:36:31.406Z,86.51
2018-06-06T02:37:36.919Z,87.18
2018-06-06T02:38:42.437Z,86.80
2018-06-06T02:39:47.958Z,86.41
2018-06-06T02:40:53.462Z,86.51
2018-06-06T02:41:58.976Z,86.70
2018-06-06T02:43:04.494Z,86.99
2018-06-06T02:44:10.056Z,86.61
2018-06-06T02:45:15.526Z,86.80
2018-06-06T02:46:21.035Z,86.61
2018-06-06T02:47:26.547Z,86.90
2018-06-06T02:48:32.069Z,86.70
2018-06-06T02:49:37.591Z,86.70
2018-06-06T02:50:43.219Z,86.90
2018-06-06T02:51:48.607Z,86.61
2018-06-06T02:52:54.125Z,86.70
2018-06-06T02:53:59.741Z,87.47
2018-06-06T02:55:05.150Z,86.80
2018-06-06T02:56:10.703Z,86.37
2018-06-06T02:57:16.186Z,86.57
2018-06-06T02:58:21.697Z,86.76
2018-06-06T02:59:27.212Z,86.80
2018-06-06T03:00:32.722Z,86.37
2018-06-06T03:01:38.237Z,86.28
2018-06-06T03:02:43.756Z,86.47
2018-06-06T03:03:49.267Z,87.14
2018-06-06T03:04:54.778Z,87.90
2018-06-06T03:06:00.299Z,88.48
2018-06-06T03:07:05.817Z,87.81
2018-06-06T03:08:11.332Z,88.00
2018-06-06T03:09:16.841Z,86.76
2018-06-06T03:10:22.353Z,86.37
2018-06-06T03:11:27.869Z,85.99
2018-06-06T03:12:33.380Z,86.18
2018-06-06T03:13:38.900Z,86.66
2018-06-06T03:14:44.408Z,86.47
2018-06-06T03:15:49.925Z,85.99
2018-06-06T03:16:55.440Z,86.47
2018-06-06T03:18:00.954Z,86.47
2018-06-06T03:19:06.467Z,86.08
2018-06-06T03:20:11.985Z,85.89
2018-06-06T03:21:17.499Z,85.22
2018-06-06T03:22:23.013Z,85.13
2018-06-06T03:23:28.528Z,85.13
2018-06-06T03:24:34.041Z,84.84
2018-06-06T03:25:39.561Z,84.84
2018-06-06T03:26:45.075Z,85.03
2018-06-06T03:27:50.586Z,85.51
2018-06-06T03:28:56.092Z,85.03
2018-06-06T03:30:01.609Z,84.94
2018-06-06T03:31:07.358Z,84.94
2018-06-06T03:32:12.674Z,85.41
2018-06-06T03:33:18.149Z,85.32
2018-06-06T03:34:23.738Z,85.80
2018-06-06T03:35:29.181Z,86.28
2018-06-06T03:36:34.711Z,86.28
2018-06-06T03:37:40.213Z,86.85
2018-06-06T03:38:45.722Z,86.76
2018-06-06T03:39:51.235Z,85.99
2018-06-06T03:40:56.756Z,86.08
2018-06-06T03:42:02.266Z,86.76
2018-06-06T03:43:07.778Z,86.47
2018-06-06T03:44:13.293Z,86.76
2018-06-06T03:45:18.804Z,86.57
2018-06-06T03:46:24.319Z,86.47
2018-06-06T03:47:29.835Z,87.23
2018-06-06T03:48:35.347Z,87.43
2018-06-06T03:49:40.867Z,87.62
2018-06-06T03:50:46.377Z,87.81
2018-06-06T03:51:51.889Z,87.52
2018-06-06T03:52:57.406Z,88.29
2018-06-06T03:54:02.926Z,88.29
2018-06-06T03:55:08.442Z,88.29
2018-06-06T03:56:13.952Z,88.76
2018-06-06T03:57:19.469Z,89.05
2018-06-06T03:58:24.973Z,88.67
2018-06-06T03:59:30.490Z,89.05
2018-06-06T04:00:36.007Z,89.05
2018-06-06T04:01:41.525Z,89.05
2018-06-06T04:02:47.042Z,88.48
2018-06-06T04:03:52.547Z,88.48
2018-06-06T04:04:58.061Z,88.76
2018-06-06T04:06:03.618Z,88.86
2018-06-06T04:07:09.091Z,89.34
2018-06-06T04:08:14.612Z,89.24
2018-06-06T04:09:20.239Z,89.15
2018-06-06T04:10:25.632Z,89.24
2018-06-06T04:11:31.148Z,89.34
2018-06-06T04:12:36.667Z,89.67
2018-06-06T04:13:42.178Z,89.48
2018-06-06T04:14:47.690Z,89.34
2018-06-06T04:15:53.206Z,89.00
2018-06-06T04:16:58.714Z,88.52
2018-06-06T04:18:04.234Z,89.09
2018-06-06T04:19:09.748Z,89.09
2018-06-06T04:20:15.262Z,89.00
2018-06-06T04:21:20.781Z,89.38
2018-06-06T04:22:26.292Z,89.29
2018-06-06T04:23:31.804Z,88.90
2018-06-06T04:24:37.315Z,88.71
2018-06-06T04:25:42.836Z,89.29
2018-06-06T04:26:48.346Z,89.29
2018-06-06T04:27:53.861Z,89.19
2018-06-06T04:28:59.372Z,89.48
2018-06-06T04:30:04.888Z,89.38
2018-06-06T04:31:10.406Z,89.29
2018-06-06T04:32:15.917Z,89.19
2018-06-06T04:33:21.432Z,89.29
2018-06-06T04:34:26.943Z,89.38
2018-06-06T04:35:32.460Z,89.19
2018-06-06T04:36:37.974Z,89.67
2018-06-06T04:37:43.496Z,89.72
2018-06-06T04:38:49.019Z,89.72
2018-06-06T04:39:54.575Z,89.72
2018-06-06T04:41:00.034Z,89.72
2018-06-06T04:42:05.548Z,89.52
2018-06-06T04:43:11.065Z,89.86
2018-06-06T04:44:16.576Z,90.09
2018-06-06T04:45:22.094Z,90.09
2018-06-06T04:46:27.642Z,90.29
2018-06-06T04:47:33.202Z,90.29
2018-06-06T04:48:38.637Z,90.19
2018-06-06T04:49:44.146Z,90.86
2018-06-06T04:50:49.664Z,90.29
2018-06-06T04:51:55.178Z,91.05
2018-06-06T04:53:00.694Z,91.00
2018-06-06T04:54:06.212Z,91.05
2018-06-06T04:55:11.728Z,90.77
2018-06-06T04:56:17.237Z,90.91
2018-06-06T04:57:22.751Z,90.53
2018-06-06T04:58:28.276Z,90.62
2018-06-06T04:59:33.783Z,91.10
2018-06-06T05:00:39.308Z,90.86
2018-06-06T05:01:44.807Z,90.91
2018-06-06T05:02:50.324Z,91.10
2018-06-06T05:03:55.839Z,90.81
2018-06-06T05:05:01.353Z,91.10
2018-06-06T05:06:06.871Z,91.19
2018-06-06T05:07:12.391Z,91.00
2018-06-06T05:08:17.901Z,90.81
2018-06-06T05:09:23.411Z,91.00
2018-06-06T05:10:28.928Z,91.49
2018-06-06T05:11:34.445Z,91.49
2018-06-06T05:12:39.961Z,91.10
2018-06-06T05:13:45.485Z,91.10
2018-06-06T05:14:51.037Z,91.39
2018-06-06T05:15:56.505Z,91.49
2018-06-06T05:17:02.018Z,91.67
2018-06-06T05:18:07.547Z,91.58
2018-06-06T05:19:13.047Z,91.86
2018-06-06T05:20:18.572Z,92.10
2018-06-06T05:21:24.079Z,91.58
2018-06-06T05:22:29.603Z,92.30
2018-06-06T05:23:35.117Z,92.20
2018-06-06T05:24:40.632Z,91.91
2018-06-06T05:25:46.148Z,92.20
2018-06-06T05:26:51.691Z,91.43
2018-06-06T05:27:57.192Z,91.72
2018-06-06T05:29:02.699Z,91.91
2018-06-06T05:30:08.208Z,91.53
2018-06-06T05:31:13.724Z,91.63
2018-06-06T05:32:19.227Z,91.63
2018-06-06T05:33:24.749Z,92.01
2018-06-06T05:34:30.263Z,92.10
2018-06-06T05:35:35.779Z,92.10
2018-06-06T05:36:41.289Z,91.91
2018-06-06T05:37:46.805Z,92.24
2018-06-06T05:38:52.323Z,92.34
2018-06-06T05:39:57.838Z,91.77
2018-06-06T05:41:03.353Z,91.86
2018-06-06T05:42:08.865Z,92.15
2018-06-06T05:43:14.387Z,91.96
2018-06-06T05:44:19.897Z,91.96
2018-06-06T05:45:25.415Z,91.86
2018-06-06T05:46:30.927Z,91.67
2018-06-06T05:47:36.443Z,91.96
2018-06-06T05:48:41.966Z,91.86
2018-06-06T05:49:47.477Z,91.86
2018-06-06T05:50:52.993Z,92.19
2018-06-06T05:51:58.514Z,92.19
2018-06-06T05:53:04.054Z,91.72
2018-06-06T05:54:09.545Z,91.52
2018-06-06T05:55:15.134Z,91.24
2018-06-06T05:56:20.569Z,91.52
2018-06-06T05:57:26.088Z,91.14
2018-06-06T05:58:31.602Z,90.56
2018-06-06T05:59:37.116Z,90.75
2018-06-06T06:00:42.654Z,90.66
2018-06-06T06:01:48.146Z,90.70
2018-06-06T06:02:53.716Z,90.42
2018-06-06T06:03:59.176Z,90.42
2018-06-06T06:05:04.702Z,89.84
2018-06-06T06:06:10.220Z,90.03
2018-06-06T06:07:15.723Z,89.46
2018-06-06T06:08:21.266Z,89.36
2018-06-06T06:09:26.770Z,89.65
2018-06-06T06:10:32.270Z,89.46
2018-06-06T06:11:37.799Z,89.46
2018-06-06T06:12:43.314Z,89.55
2018-06-06T06:13:48.820Z,89.36
2018-06-06T06:14:54.338Z,89.46
2018-06-06T06:15:59.851Z,89.46
2018-06-06T06:17:05.369Z,89.84
2018-06-06T06:18:10.891Z,89.69
2018-06-06T06:19:16.399Z,89.79
2018-06-06T06:20:21.925Z,89.02
2018-06-06T06:21:27.439Z,89.40
2018-06-06T06:22:32.949Z,88.73
2018-06-06T06:23:38.471Z,87.96
2018-06-06T06:24:43.985Z,88.25
2018-06-06T06:25:49.496Z,86.91
2018-06-06T06:26:55.017Z,87.24
2018-06-06T06:28:00.545Z,86.43
2018-06-06T06:29:06.063Z,86.24
2018-06-06T06:30:11.652Z,86.28
2018-06-06T06:31:17.177Z,85.75
2018-06-06T06:32:22.599Z,85.61
2018-06-06T06:33:28.149Z,85.03
2018-06-06T06:34:33.639Z,85.41
2018-06-06T06:35:39.149Z,85.41
2018-06-06T06:36:44.667Z,85.22
2018-06-06T06:37:50.196Z,84.94
2018-06-06T06:38:55.697Z,85.13
2018-06-06T06:40:01.211Z,84.94
2018-06-06T06:41:06.818Z,85.03
2018-06-06T06:42:12.246Z,85.36
2018-06-06T06:43:17.760Z,84.69
2018-06-06T06:44:23.279Z,85.17
2018-06-06T06:45:28.794Z,84.30
2018-06-06T06:46:34.316Z,84.01
2018-06-06T06:47:39.840Z,83.92
2018-06-06T06:48:45.345Z,83.63
2018-06-06T06:49:50.864Z,83.44
2018-06-06T06:50:56.380Z,82.67
2018-06-06T06:52:01.900Z,82.76
2018-06-06T06:53:07.414Z,82.57
2018-06-06T06:54:12.927Z,82.71
2018-06-06T06:55:18.444Z,82.90
2018-06-06T06:56:23.967Z,82.32
2018-06-06T06:57:29.482Z,82.52
2018-06-06T06:58:35.004Z,82.14
2018-06-06T06:59:40.521Z,81.84
2018-06-06T07:00:46.033Z,81.84
2018-06-06T07:01:51.554Z,81.75
2018-06-06T07:02:57.065Z,81.75
2018-06-06T07:04:02.577Z,81.84
2018-06-06T07:05:08.105Z,81.37
2018-06-06T07:06:13.610Z,81.56
2018-06-06T07:07:19.136Z,81.56
2018-06-06T07:08:24.655Z,81.88
2018-06-06T07:09:30.163Z,82.08
2018-06-06T07:10:35.684Z,81.79
2018-06-06T07:11:41.208Z,81.50
2018-06-06T07:12:46.715Z,81.30
2018-06-06T07:13:52.235Z,80.92
2018-06-06T07:14:57.750Z,80.15
2018-06-06T07:16:03.313Z,80.06
2018-06-06T07:17:08.789Z,80.06
2018-06-06T07:18:14.305Z,80.25
2018-06-06T07:19:19.878Z,80.44
2018-06-06T07:20:25.345Z,80.35
2018-06-06T07:21:30.854Z,80.29
2018-06-06T07:22:36.377Z,80.10
2018-06-06T07:23:41.894Z,80.38
2018-06-06T07:24:47.418Z,80.38
2018-06-06T07:25:52.919Z,79.61
2018-06-06T07:26:58.507Z,79.81
2018-06-06T07:28:03.955Z,78.94
2018-06-06T07:29:09.475Z,78.65
2018-06-06T07:30:14.993Z,78.94
2018-06-06T07:31:20.508Z,78.65
2018-06-06T07:32:26.036Z,78.36
2018-06-06T07:33:31.549Z,78.59
2018-06-06T07:34:37.062Z,78.59
2018-06-06T07:35:42.579Z,78.59
2018-06-06T07:36:48.098Z,77.83
2018-06-06T07:37:53.644Z,77.44
2018-06-06T07:38:59.140Z,77.53
2018-06-06T07:40:04.657Z,77.06
2018-06-06T07:41:10.169Z,77.38
2018-06-06T07:42:15.693Z,77.34
2018-06-06T07:43:21.229Z,76.71
2018-06-06T07:44:26.742Z,76.71
2018-06-06T07:45:32.272Z,76.71
2018-06-06T07:46:37.757Z,76.71
2018-06-06T07:47:43.295Z,76.42
2018-06-06T07:48:48.802Z,76.32
2018-06-06T07:49:54.314Z,76.13
2018-06-06T07:50:59.833Z,76.23
2018-06-06T07:52:05.346Z,75.74
2018-06-06T07:53:10.892Z,75.36
2018-06-06T07:54:16.389Z,75.16
2018-06-06T07:55:21.900Z,75.07
2018-06-06T07:56:27.420Z,74.97
2018-06-06T07:57:32.939Z,75.20
2018-06-06T07:58:38.465Z,75.30
2018-06-06T07:59:43.972Z,75.20
2018-06-06T08:00:49.492Z,75.10
2018-06-06T08:01:55.013Z,75.59
2018-06-06T08:03:00.540Z,74.24
2018-06-06T08:04:06.044Z,74.33
2018-06-06T08:05:11.560Z,74.33
2018-06-06T08:06:17.085Z,75.01
2018-06-06T08:07:22.604Z,74.82
2018-06-06T08:08:28.128Z,74.33
2018-06-06T08:09:33.641Z,74.47
2018-06-06T08:10:39.157Z,73.99
2018-06-06T08:11:44.679Z,74.08
2018-06-06T08:12:50.194Z,73.99
2018-06-06T08:13:55.710Z,74.37
2018-06-06T08:15:01.227Z,73.69
2018-06-06T08:16:06.747Z,73.60
2018-06-06T08:17:12.265Z,73.11
2018-06-06T08:18:17.784Z,73.60
2018-06-06T08:19:23.303Z,73.69
2018-06-06T08:20:28.825Z,73.69
2018-06-06T08:21:34.362Z,73.63
2018-06-06T08:22:39.860Z,72.58
2018-06-06T08:23:45.373Z,71.90
2018-06-06T08:24:50.898Z,72.48
2018-06-06T08:25:56.414Z,72.19
2018-06-06T08:27:01.930Z,71.90
2018-06-06T08:28:07.451Z,72.19
2018-06-06T08:29:12.972Z,72.38
2018-06-06T08:30:18.514Z,71.42
2018-06-06T08:31:24.007Z,70.45
2018-06-06T08:32:29.524Z,70.94
2018-06-06T08:33:35.046Z,71.42
2018-06-06T08:34:40.573Z,71.22
2018-06-06T08:35:46.133Z,70.58
2018-06-06T08:36:51.595Z,70.68
2018-06-06T08:37:57.114Z,70.10
2018-06-06T08:39:02.645Z,70.29
2018-06-06T08:40:08.158Z,70.10
2018-06-06T08:41:13.675Z,70.68
2018-06-06T08:42:19.196Z,70.68
2018-06-06T08:43:24.710Z,71.00
2018-06-06T08:44:30.232Z,69.94
2018-06-06T08:45:35.752Z,70.42
2018-06-06T08:46:41.271Z,70.32
2018-06-06T08:47:46.785Z,69.84
2018-06-06T08:48:52.303Z,69.84
2018-06-06T08:49:57.825Z,69.74
2018-06-06T08:51:03.349Z,70.32
2018-06-06T08:52:08.862Z,69.65
2018-06-06T08:53:14.381Z,69.74
2018-06-06T08:54:19.943Z,69.30
2018-06-06T08:55:25.427Z,69.68
2018-06-06T08:56:31.065Z,69.40
2018-06-06T08:57:36.458Z,69.20
2018-06-06T08:58:41.984Z,69.59
2018-06-06T08:59:47.498Z,68.72
2018-06-06T09:00:53.023Z,69.01
2018-06-06T09:01:58.536Z,68.62
2018-06-06T09:03:04.056Z,68.33
2018-06-06T09:04:09.597Z,68.33
2018-06-06T09:05:15.093Z,68.62
2018-06-06T09:06:20.615Z,68.27
2018-06-06T09:07:26.134Z,68.37
2018-06-06T09:08:31.654Z,68.75
2018-06-06T09:09:37.174Z,67.88
2018-06-06T09:10:42.690Z,67.40
2018-06-06T09:11:48.214Z,67.40
2018-06-06T09:12:53.739Z,67.49
2018-06-06T09:13:59.261Z,66.63
2018-06-06T09:15:04.772Z,66.24
2018-06-06T09:16:10.302Z,66.82
2018-06-06T09:17:15.813Z,66.47
2018-06-06T09:18:21.329Z,66.27
2018-06-06T09:19:26.845Z,66.17
2018-06-06T09:20:32.369Z,66.37
2018-06-06T09:21:37.888Z,66.56
2018-06-06T09:22:43.408Z,66.56
2018-06-06T09:23:48.926Z,66.85
2018-06-06T09:24:54.454Z,66.27
2018-06-06T09:25:59.965Z,65.20
2018-06-06T09:27:05.498Z,65.59
2018-06-06T09:28:11.003Z,65.59
2018-06-06T09:29:16.525Z,64.72
2018-06-06T09:30:22.045Z,64.72
2018-06-06T09:31:27.565Z,64.72
2018-06-06T09:32:33.085Z,65.05
2018-06-06T09:33:38.606Z,65.05
2018-06-06T09:34:44.126Z,65.14
2018-06-06T09:35:49.654Z,65.53
2018-06-06T09:36:55.183Z,65.34
2018-06-06T09:38:00.684Z,64.27
2018-06-06T09:39:06.208Z,63.59
2018-06-06T09:40:11.746Z,63.40
2018-06-06T09:41:17.258Z,63.49
2018-06-06T09:42:22.774Z,63.59
2018-06-06T09:43:28.306Z,63.89
2018-06-06T09:44:33.860Z,64.17
2018-06-06T09:45:39.336Z,63.89
2018-06-06T09:46:44.848Z,63.24
2018-06-06T09:47:50.367Z,62.56
2018-06-06T09:48:56.027Z,62.95
2018-06-06T09:50:01.414Z,63.04
2018-06-06T09:51:07.008Z,62.75
2018-06-06T09:52:12.455Z,62.66
2018-06-06T09:53:17.967Z,62.66
2018-06-06T09:54:23.485Z,61.98
2018-06-06T09:55:29.045Z,62.17
2018-06-06T09:56:34.638Z,60.75
2018-06-06T09:57:40.173Z,61.62
2018-06-06T09:58:45.610Z,61.82
2018-06-06T09:59:51.103Z,62.01
2018-06-06T10:00:56.612Z,60.46
2018-06-06T10:02:02.134Z,61.24
2018-06-06T10:03:07.657Z,62.01
2018-06-06T10:04:13.165Z,61.43
2018-06-06T10:05:18.713Z,61.26
2018-06-06T10:06:24.213Z,61.72
2018-06-06T10:07:29.736Z,61.72
2018-06-06T10:08:35.246Z,60.94
2018-06-06T10:09:40.775Z,60.39
2018-06-06T10:10:46.295Z,60.58
2018-06-06T10:11:51.807Z,60.20
2018-06-06T10:12:57.349Z,60.49
2018-06-06T10:14:02.850Z,60.10
2018-06-06T10:15:08.370Z,59.52
2018-06-06T10:16:14.002Z,59.13
2018-06-06T10:17:19.413Z,58.74
2018-06-06T10:18:24.959Z,59.55
2018-06-06T10:19:30.450Z,59.55
2018-06-06T10:20:36.083Z,59.91
2018-06-06T10:21:41.499Z,60.32
2018-06-06T10:22:47.016Z,60.68
2018-06-06T10:23:52.537Z,59.94
2018-06-06T10:24:58.061Z,60.23
2018-06-06T10:26:03.600Z,59.74
2018-06-06T10:27:09.096Z,59.36
2018-06-06T10:28:14.619Z,58.48
2018-06-06T10:29:20.154Z,58.19
2018-06-06T10:30:25.668Z,58.67
2018-06-06T10:31:31.209Z,57.54
2018-06-06T10:32:36.806Z,57.54
2018-06-06T10:33:42.455Z,57.73
2018-06-06T10:34:47.754Z,56.86
2018-06-06T10:35:53.379Z,56.57
2018-06-06T10:36:58.920Z,57.34
2018-06-06T10:38:04.478Z,57.37
2018-06-06T10:39:09.897Z,56.76
2018-06-06T10:40:15.548Z,55.69
2018-06-06T10:41:21.066Z,55.43
2018-06-06T10:42:26.504Z,56.67
2018-06-06T10:43:35.292Z,57.76
2018-06-06T10:44:37.460Z,57.67
2018-06-06T10:45:43.110Z,56.60
2018-06-06T10:46:48.533Z,54.85
2018-06-06T10:47:54.031Z,55.24
2018-06-06T10:48:59.536Z,55.33
2018-06-06T10:50:05.112Z,55.63
2018-06-06T10:51:10.578Z,55.53
2018-06-06T10:52:16.208Z,54.94
2018-06-06T10:53:21.691Z,55.24
2018-06-06T10:54:27.221Z,55.24
2018-06-06T10:55:32.662Z,55.53
2018-06-06T10:56:38.165Z,54.56
2018-06-06T10:57:43.693Z,54.36
2018-06-06T10:58:49.258Z,54.49
2018-06-06T10:59:54.752Z,54.49
2018-06-06T11:01:00.258Z,54.68
2018-06-06T11:02:05.811Z,54.49
2018-06-06T11:03:11.297Z,54.49
2018-06-06T11:04:16.823Z,54.39
2018-06-06T11:05:22.349Z,53.71
2018-06-06T11:06:27.860Z,53.91
2018-06-06T11:07:33.380Z,54.78
2018-06-06T11:08:38.918Z,54.22
2018-06-06T11:09:44.421Z,54.80
2018-06-06T11:10:49.963Z,54.32
2018-06-06T11:11:55.475Z,54.42
2018-06-06T11:13:00.989Z,53.54
2018-06-06T11:14:06.523Z,53.06
2018-06-06T11:15:12.027Z,52.19
2018-06-06T11:16:17.555Z,52.19
2018-06-06T11:17:23.082Z,53.08
2018-06-06T11:18:28.601Z,53.96
2018-06-06T11:19:34.120Z,53.08
2018-06-06T11:20:39.640Z,52.59
2018-06-06T11:21:45.164Z,54.93
2018-06-06T11:22:50.681Z,54.44
2018-06-06T11:23:56.204Z,53.20
2018-06-06T11:25:01.727Z,51.23
2018-06-06T11:26:07.254Z,51.23
2018-06-06T11:27:12.772Z,51.53
2018-06-06T11:28:18.303Z,50.87
2018-06-06T11:29:23.821Z,50.85
2018-06-06T11:30:29.343Z,50.56
2018-06-06T11:31:34.871Z,50.56
2018-06-06T11:32:40.382Z,50.07
2018-06-06T11:33:45.904Z,51.17
2018-06-06T11:34:51.468Z,50.48
2018-06-06T11:35:56.946Z,53.11
2018-06-06T11:37:02.481Z,54.96
2018-06-06T11:38:08.005Z,53.89
2018-06-06T11:39:13.514Z,53.62
2018-06-06T11:40:19.036Z,54.01
2018-06-06T11:41:24.557Z,50.51
2018-06-06T11:42:30.082Z,51.09
2018-06-06T11:43:35.604Z,50.80
2018-06-06T11:44:41.126Z,52.84
2018-06-06T11:45:46.644Z,52.75
2018-06-06T11:46:52.179Z,52.26
2018-06-06T11:47:57.692Z,52.16
2018-06-06T11:49:03.217Z,50.73
2018-06-06T11:50:08.739Z,48.95
2018-06-06T11:51:14.284Z,48.95
2018-06-06T11:52:19.811Z,49.66
2018-06-06T11:53:25.303Z,50.53
2018-06-06T11:54:30.835Z,52.09
2018-06-06T11:55:36.348Z,52.19
2018-06-06T11:56:41.871Z,51.31
2018-06-06T11:57:47.401Z,50.63
2018-06-06T11:58:53.003Z,49.66
2018-06-06T11:59:58.444Z,50.63
2018-06-06T12:01:04.027Z,50.46
2018-06-06T12:02:09.491Z,50.95
2018-06-06T12:03:15.004Z,50.85
2018-06-06T12:04:20.545Z,49.88
2018-06-06T12:05:26.060Z,48.02
2018-06-06T12:06:31.583Z,48.51
2018-06-06T12:07:37.109Z,46.66
2018-06-06T12:08:42.622Z,46.95
2018-06-06T12:09:48.200Z,46.95
2018-06-06T12:10:53.672Z,46.56
2018-06-06T12:11:59.204Z,46.95
2018-06-06T12:13:04.712Z,47.63
2018-06-06T12:14:10.229Z,48.02
2018-06-06T12:15:15.763Z,49.00
2018-06-06T12:16:21.284Z,50.65
2018-06-06T12:17:26.827Z,48.51
2018-06-06T12:18:32.321Z,49.39
2018-06-06T12:19:37.909Z,48.61
2018-06-06T12:20:43.372Z,47.63
2018-06-06T12:21:48.892Z,48.12
2018-06-06T12:22:54.416Z,48.22
2018-06-06T12:23:59.943Z,48.14
2018-06-06T12:25:05.469Z,49.51
2018-06-06T12:26:10.986Z,50.58
2018-06-06T12:27:16.503Z,50.38
2018-06-06T12:28:22.030Z,49.61
2018-06-06T12:29:27.564Z,48.44
2018-06-06T12:30:33.096Z,47.75
2018-06-06T12:31:38.636Z,47.56
2018-06-06T12:32:44.133Z,47.46
2018-06-06T12:33:49.643Z,46.78
2018-06-06T12:34:55.168Z,47.17
2018-06-06T12:36:00.690Z,47.66
2018-06-06T12:37:06.214Z,46.69
2018-06-06T12:38:11.743Z,46.88
2018-06-06T12:39:17.256Z,47.46
2018-06-06T12:40:22.780Z,50.19
2018-06-06T12:41:28.304Z,50.68
2018-06-06T12:42:33.838Z,49.34
2018-06-06T12:43:39.350Z,49.71
2018-06-06T12:44:44.870Z,47.29
2018-06-06T12:45:50.401Z,47.88
2018-06-06T12:46:55.929Z,47.49
2018-06-06T12:48:01.457Z,47.78
2018-06-06T12:49:06.966Z,47.88
2018-06-06T12:50:12.494Z,47.58
2018-06-06T12:51:18.030Z,47.00
2018-06-06T12:52:23.534Z,47.19
2018-06-06T12:53:29.064Z,46.90
2018-06-06T12:54:34.585Z,47.00
2018-06-06T12:55:40.107Z,47.00
2018-06-06T12:56:45.629Z,46.51
2018-06-06T12:57:51.156Z,45.25
2018-06-06T12:58:56.674Z,46.39
2018-06-06T13:00:02.207Z,46.49
2018-06-06T13:01:07.727Z,46.88
2018-06-06T13:02:13.337Z,47.56
2018-06-06T13:03:18.771Z,47.97
2018-06-06T13:04:24.298Z,47.78
2018-06-06T13:05:29.816Z,47.49
2018-06-06T13:06:35.341Z,48.05
2018-06-06T13:07:40.866Z,49.02
2018-06-06T13:08:46.388Z,49.15
2018-06-06T13:09:51.910Z,48.66
2018-06-06T13:10:57.447Z,47.58
2018-06-06T13:12:02.954Z,47.49
2018-06-06T13:13:08.492Z,47.97
2018-06-06T13:14:14.007Z,47.97
2018-06-06T13:15:19.526Z,47.58
2018-06-06T13:16:25.054Z,47.58
2018-06-06T13:17:30.583Z,47.58
2018-06-06T13:18:36.092Z,47.58
2018-06-06T13:19:41.619Z,49.15
2018-06-06T13:20:47.140Z,48.27
2018-06-06T13:21:52.664Z,47.49
2018-06-06T13:22:58.189Z,47.19
2018-06-06T13:24:03.825Z,47.49
2018-06-06T13:25:09.235Z,46.02
2018-06-06T13:26:14.764Z,46.61
2018-06-06T13:27:20.280Z,46.41
2018-06-06T13:28:25.812Z,46.80
2018-06-06T13:29:31.328Z,46.80
2018-06-06T13:30:36.855Z,46.02
2018-06-06T13:31:42.391Z,46.20
2018-06-06T13:32:47.893Z,46.61
2018-06-06T13:33:53.430Z,47.27
2018-06-06T13:34:58.960Z,47.17
2018-06-06T13:36:04.471Z,47.07
2018-06-06T13:37:09.991Z,47.66
2018-06-06T13:38:15.523Z,48.05
2018-06-06T13:39:21.041Z,49.51
2018-06-06T13:40:26.562Z,48.75
2018-06-06T13:41:32.081Z,49.15
2018-06-06T13:42:37.606Z,50.29
2018-06-06T13:43:43.130Z,50.60
2018-06-06T13:44:48.657Z,50.12
2018-06-06T13:45:54.174Z,49.83
2018-06-06T13:46:59.707Z,50.60
2018-06-06T13:48:05.225Z,49.83
2018-06-06T13:49:10.743Z,47.97
2018-06-06T13:50:16.280Z,47.68
2018-06-06T13:51:21.795Z,47.39
2018-06-06T13:52:27.332Z,48.66
2018-06-06T13:53:32.836Z,47.49
2018-06-06T13:54:38.418Z,46.30
2018-06-06T13:55:43.884Z,46.20
2018-06-06T13:56:49.418Z,45.81
2018-06-06T13:57:54.933Z,45.90
2018-06-06T13:59:00.461Z,46.00
2018-06-06T14:00:05.985Z,46.69
2018-06-06T14:01:11.548Z,46.69
2018-06-06T14:02:17.027Z,46.69
2018-06-06T14:03:22.551Z,46.78